createdAt,value
2023-11-07T00:01:42.242Z,3.15
2023-11-07T00:04:09.717Z,3.53
2023-11-07T00:06:36.928Z,3.40
2023-11-07T00:09:04.053Z,3.60
2023-11-07T00:11:30.994Z,3.53
2023-11-07T00:13:57.997Z,3.55
2023-11-07T00:16:24.910Z,3.97
2023-11-07T00:18:51.943Z,3.65
2023-11-07T00:21:18.914Z,3.40
2023-11-07T00:23:45.907Z,3.38
2023-11-07T00:26:12.866Z,3.67
2023-11-07T00:28:39.840Z,4.18
2023-11-07T00:31:06.931Z,3.38
2023-11-07T00:33:34.170Z,3.25
2023-11-07T00:36:01.314Z,2.40
2023-11-07T00:38:28.310Z,3.05
2023-11-07T00:40:55.301Z,2.75
2023-11-07T00:43:22.330Z,3.10
2023-11-07T00:45:49.294Z,3.03
2023-11-07T00:48:16.397Z,2.92
2023-11-07T00:50:43.602Z,2.78
2023-11-07T00:53:10.616Z,3.13
2023-11-07T00:55:37.586Z,2.33
2023-11-07T00:58:04.529Z,3.03
2023-11-07T01:00:31.413Z,3.17
2023-11-07T01:02:58.441Z,2.60
2023-11-07T01:05:25.564Z,3.25
2023-11-07T01:07:52.647Z,2.78
2023-11-07T01:10:19.739Z,3.05
2023-11-07T01:12:47.041Z,2.88
2023-11-07T01:15:14.264Z,3.55
2023-11-07T01:17:41.368Z,2.40
2023-11-07T01:20:08.974Z,3.00
2023-11-07T01:22:37.395Z,2.65
2023-11-07T01:25:04.665Z,3.20
2023-11-07T01:27:32.836Z,2.40
2023-11-07T01:29:59.935Z,2.67
2023-11-07T01:32:26.947Z,2.78
2023-11-07T01:34:53.925Z,2.53
2023-11-07T01:37:20.888Z,2.95
2023-11-07T01:39:47.911Z,2.67
2023-11-07T01:42:14.817Z,2.88
2023-11-07T01:44:50.590Z,2.83
2023-11-07T01:47:19.014Z,2.55
2023-11-07T01:49:47.715Z,2.25
2023-11-07T01:52:18.053Z,3.08
2023-11-07T01:54:46.445Z,2.90
2023-11-07T01:57:14.125Z,2.97
2023-11-07T01:59:41.686Z,2.65
2023-11-07T02:02:09.298Z,2.45
2023-11-07T02:04:36.585Z,2.63
2023-11-07T02:07:03.646Z,2.80
2023-11-07T02:09:31.790Z,2.83
2023-11-07T02:11:58.709Z,2.63
2023-11-07T02:14:32.945Z,2.30
2023-11-07T02:16:59.890Z,2.63
2023-11-07T02:19:26.833Z,2.72
2023-11-07T02:21:58.904Z,2.45
2023-11-07T02:24:26.103Z,2.10
2023-11-07T02:26:56.744Z,2.03
2023-11-07T02:29:23.946Z,2.38
2023-11-07T02:31:51.062Z,2.30
2023-11-07T02:34:18.931Z,2.28
2023-11-07T02:36:45.961Z,2.60
2023-11-07T02:39:12.926Z,2.72
2023-11-07T02:41:42.991Z,2.00
2023-11-07T02:44:09.970Z,1.88
2023-11-07T02:46:36.896Z,2.00
2023-11-07T02:49:03.979Z,2.42
2023-11-07T02:51:31.201Z,2.20
2023-11-07T02:53:58.259Z,2.05
2023-11-07T02:56:29.009Z,2.55
2023-11-07T02:58:56.612Z,1.63
2023-11-07T03:01:23.888Z,1.70
2023-11-07T03:03:51.290Z,1.20
2023-11-07T03:06:19.507Z,1.60
2023-11-07T03:08:46.598Z,1.40
2023-11-07T03:11:13.633Z,1.50
2023-11-07T03:13:40.582Z,1.55
2023-11-07T03:16:07.949Z,1.25
2023-11-07T03:18:35.150Z,1.55
2023-11-07T03:21:02.429Z,1.55
2023-11-07T03:23:29.320Z,1.35
2023-11-07T03:25:56.341Z,1.00
2023-11-07T03:28:23.281Z,1.10
2023-11-07T03:30:50.230Z,1.42
2023-11-07T03:33:17.534Z,1.10
2023-11-07T03:35:44.837Z,1.10
2023-11-07T03:38:11.768Z,1.42
2023-11-07T03:40:38.740Z,1.10
2023-11-07T03:43:06.540Z,1.30
2023-11-07T03:45:33.515Z,1.23
2023-11-07T03:48:00.677Z,1.85
2023-11-07T03:50:27.753Z,1.10
2023-11-07T03:52:54.698Z,1.40
2023-11-07T03:55:21.629Z,1.40
2023-11-07T03:57:48.652Z,0.95
2023-11-07T04:00:15.963Z,1.30
2023-11-07T04:02:43.030Z,1.20
2023-11-07T04:05:10.030Z,1.13
2023-11-07T04:07:36.955Z,1.67
2023-11-07T04:10:04.167Z,1.38
2023-11-07T04:12:31.122Z,1.30
2023-11-07T04:14:58.050Z,1.55
2023-11-07T04:17:25.145Z,1.27
2023-11-07T04:19:52.071Z,1.20
2023-11-07T04:22:18.968Z,1.30
2023-11-07T04:24:46.012Z,1.20
2023-11-07T04:27:13.027Z,1.40
2023-11-07T04:29:40.016Z,1.05
2023-11-07T04:32:07.317Z,1.10
2023-11-07T04:34:34.238Z,1.70
2023-11-07T04:37:01.423Z,1.45
2023-11-07T04:39:28.411Z,1.17
2023-11-07T04:41:55.384Z,1.50
2023-11-07T04:44:22.466Z,1.40
2023-11-07T04:46:49.448Z,0.90
2023-11-07T04:49:16.541Z,1.50
2023-11-07T04:51:43.627Z,1.88
2023-11-07T04:54:10.674Z,1.77
2023-11-07T04:56:37.689Z,1.58
2023-11-07T04:59:04.703Z,1.38
2023-11-07T05:01:31.594Z,1.50
2023-11-07T05:03:58.727Z,1.70
2023-11-07T05:06:25.841Z,2.25
2023-11-07T05:08:52.884Z,1.75
2023-11-07T05:11:19.919Z,1.35
2023-11-07T05:13:46.880Z,1.55
2023-11-07T05:16:14.088Z,1.60
2023-11-07T05:18:41.133Z,1.50
2023-11-07T05:21:08.379Z,1.35
2023-11-07T05:23:35.340Z,1.60
2023-11-07T05:26:02.344Z,1.50
2023-11-07T05:28:29.308Z,1.30
2023-11-07T05:30:56.231Z,1.42
2023-11-07T05:33:23.311Z,1.30
2023-11-07T05:35:50.371Z,1.20
2023-11-07T05:38:17.382Z,1.90
2023-11-07T05:40:44.439Z,1.40
2023-11-07T05:43:11.368Z,1.33
2023-11-07T05:45:38.347Z,2.58
2023-11-07T05:48:05.897Z,1.30
2023-11-07T05:50:32.943Z,1.88
2023-11-07T05:53:01.691Z,2.30
2023-11-07T05:55:29.645Z,1.60
2023-11-07T05:57:56.567Z,1.60
2023-11-07T06:00:23.728Z,1.88
2023-11-07T06:02:50.903Z,1.92
2023-11-07T06:05:18.140Z,2.10
2023-11-07T06:07:45.042Z,2.10
2023-11-07T06:10:11.977Z,1.40
2023-11-07T06:12:38.916Z,1.60
2023-11-07T06:15:06.554Z,2.00
2023-11-07T06:17:33.551Z,3.15
2023-11-07T06:20:00.574Z,3.20
2023-11-07T06:22:27.528Z,3.30
2023-11-07T06:24:54.496Z,1.95
2023-11-07T06:27:21.504Z,1.40
2023-11-07T06:29:48.492Z,1.42
2023-11-07T06:32:15.553Z,2.97
2023-11-07T06:34:42.662Z,4.88
2023-11-07T06:37:09.691Z,10.15
2023-11-07T06:39:36.924Z,4.85
2023-11-07T06:42:04.112Z,4.47
2023-11-07T06:44:31.119Z,154.25
2023-11-07T06:46:58.110Z,114.78
2023-11-07T06:49:25.296Z,5.47
2023-11-07T06:51:52.920Z,7.18
2023-11-07T06:54:19.913Z,3.83
2023-11-07T06:56:48.086Z,5.57
2023-11-07T06:59:15.349Z,2.15
2023-11-07T07:01:45.418Z,2.45
2023-11-07T07:04:12.746Z,2.60
2023-11-07T07:06:39.800Z,2.88
2023-11-07T07:09:06.939Z,3.35
2023-11-07T07:11:33.912Z,7.03
2023-11-07T07:14:01.022Z,6.28
2023-11-07T07:16:27.995Z,5.97
2023-11-07T07:18:55.033Z,9.50
2023-11-07T07:21:22.005Z,3.60
2023-11-07T07:23:49.154Z,7.47
2023-11-07T07:26:16.432Z,5.32
2023-11-07T07:28:43.506Z,5.53
2023-11-07T07:31:10.439Z,3.83
2023-11-07T07:33:39.004Z,4.82
2023-11-07T07:36:06.640Z,1.92
2023-11-07T07:38:33.795Z,2.00
2023-11-07T07:41:00.687Z,2.42
2023-11-07T07:43:27.580Z,4.88
2023-11-07T07:45:55.143Z,3.88
2023-11-07T07:48:22.698Z,4.28
2023-11-07T07:50:50.137Z,9.10
2023-11-07T07:53:17.246Z,8.30
2023-11-07T07:55:45.541Z,5.88
2023-11-07T07:58:13.167Z,3.03
2023-11-07T08:00:40.126Z,2.80
2023-11-07T08:03:07.219Z,2.00
2023-11-07T08:05:35.091Z,5.65
2023-11-07T08:08:02.039Z,2.30
2023-11-07T08:10:28.977Z,2.60
2023-11-07T08:12:55.862Z,2.15
2023-11-07T08:15:23.071Z,8.75
2023-11-07T08:17:53.143Z,5.65
2023-11-07T08:20:20.170Z,2.35
2023-11-07T08:22:48.459Z,2.97
2023-11-07T08:25:16.711Z,2.45
2023-11-07T08:27:44.362Z,5.32
2023-11-07T08:30:13.200Z,5.57
2023-11-07T08:32:44.057Z,5.82
2023-11-07T08:35:15.633Z,3.30
2023-11-07T08:37:43.255Z,4.35
2023-11-07T08:40:10.494Z,3.60
2023-11-07T08:42:37.584Z,1.13
2023-11-07T08:45:05.033Z,1.20
2023-11-07T08:47:32.181Z,3.58
2023-11-07T08:49:59.216Z,5.97
2023-11-07T08:52:26.216Z,3.17
2023-11-07T08:54:53.395Z,2.22
2023-11-07T08:57:20.475Z,2.78
2023-11-07T08:59:47.421Z,7.55
2023-11-07T09:02:14.705Z,4.57
2023-11-07T09:04:41.680Z,1.67
2023-11-07T09:07:08.657Z,3.40
2023-11-07T09:09:35.607Z,2.30
2023-11-07T09:12:02.695Z,2.35
2023-11-07T09:14:29.916Z,6.20
2023-11-07T09:16:58.784Z,1.10
2023-11-07T09:19:25.770Z,3.25
2023-11-07T09:21:52.742Z,1.55
2023-11-07T09:24:19.803Z,1.30
2023-11-07T09:26:46.730Z,1.20
2023-11-07T09:29:13.744Z,1.55
2023-11-07T09:31:40.921Z,1.00
2023-11-07T09:34:07.944Z,2.50
2023-11-07T09:36:35.069Z,0.85
2023-11-07T09:39:02.013Z,1.15
2023-11-07T09:41:29.081Z,1.00
2023-11-07T09:43:56.833Z,0.90
2023-11-07T09:46:25.895Z,0.98
2023-11-07T09:48:53.175Z,1.00
2023-11-07T09:51:22.717Z,0.77
2023-11-07T09:53:51.125Z,1.75
2023-11-07T09:56:18.842Z,0.82
2023-11-07T09:58:51.325Z,1.38
2023-11-07T10:01:19.916Z,1.10
2023-11-07T10:03:47.877Z,1.80
2023-11-07T10:06:14.986Z,1.10
2023-11-07T10:08:42.012Z,1.02
2023-11-07T10:11:14.022Z,1.88
2023-11-07T10:14:03.276Z,1.23
2023-11-07T10:16:41.250Z,0.98
2023-11-07T10:19:12.935Z,1.00
2023-11-07T10:21:40.016Z,1.40
2023-11-07T10:24:08.997Z,0.98
2023-11-07T10:26:36.263Z,1.00
2023-11-07T10:29:06.992Z,0.77
2023-11-07T10:31:33.930Z,1.15
2023-11-07T10:34:19.519Z,0.80
2023-11-07T10:36:46.419Z,0.85
2023-11-07T10:39:17.408Z,1.13
2023-11-07T10:41:45.351Z,0.85
2023-11-07T10:44:22.871Z,3.17
2023-11-07T10:46:50.455Z,1.13
2023-11-07T10:49:18.622Z,0.93
2023-11-07T10:51:47.868Z,0.50
2023-11-07T10:54:15.587Z,0.50
2023-11-07T10:56:43.917Z,1.00
2023-11-07T10:59:21.857Z,0.85
2023-11-07T11:01:51.056Z,0.70
2023-11-07T11:06:53.695Z,1.00
2023-11-07T11:09:24.474Z,0.90
2023-11-07T11:11:52.571Z,0.77
2023-11-07T11:14:20.435Z,0.80
2023-11-07T11:16:51.843Z,0.70
2023-11-07T11:19:37.707Z,1.13
2023-11-07T11:22:40.523Z,0.73
2023-11-07T11:25:32.481Z,0.90
2023-11-07T11:28:03.904Z,0.70
2023-11-07T11:30:35.394Z,0.80
2023-11-07T11:33:10.457Z,0.88
2023-11-07T11:35:38.904Z,1.73
2023-11-07T11:38:14.292Z,1.00
2023-11-07T11:41:00.951Z,1.10
2023-11-07T11:43:33.272Z,1.88
2023-11-07T11:46:20.281Z,0.93
2023-11-07T11:48:50.263Z,0.88
2023-11-07T11:51:32.533Z,1.10
2023-11-07T11:56:27.111Z,1.83
2023-11-07T11:59:10.005Z,1.30
2023-11-07T12:01:51.609Z,0.70
2023-11-07T12:04:27.572Z,1.40
2023-11-07T12:07:12.639Z,1.33
2023-11-07T12:09:40.448Z,0.90
2023-11-07T12:12:08.626Z,0.98
2023-11-07T12:14:49.991Z,1.10
2023-11-07T12:17:16.937Z,1.13
2023-11-07T12:19:44.075Z,1.30
2023-11-07T12:22:11.330Z,1.15
2023-11-07T12:24:39.022Z,1.92
2023-11-07T12:27:06.082Z,1.30
2023-11-07T12:29:35.317Z,1.92
2023-11-07T12:32:03.334Z,2.75
2023-11-07T12:34:39.087Z,2.35
2023-11-07T12:37:11.906Z,1.20
2023-11-07T12:39:39.349Z,1.02
2023-11-07T12:42:06.919Z,1.88
2023-11-07T12:44:33.984Z,1.85
2023-11-07T12:47:01.123Z,4.38
2023-11-07T12:49:28.189Z,2.80
2023-11-07T12:51:57.440Z,2.80
2023-11-07T12:54:27.825Z,1.40
2023-11-07T12:56:54.868Z,3.45
2023-11-07T12:59:22.040Z,1.40
2023-11-07T13:01:49.134Z,2.35
2023-11-07T13:04:17.743Z,1.40
2023-11-07T13:06:51.911Z,2.10
2023-11-07T13:09:19.061Z,1.70
2023-11-07T13:11:46.035Z,1.35
2023-11-07T13:14:13.349Z,1.70
2023-11-07T13:16:40.287Z,1.70
2023-11-07T13:19:07.309Z,2.35
2023-11-07T13:21:34.449Z,1.67
2023-11-07T13:24:01.501Z,2.10
2023-11-07T13:26:28.524Z,1.40
2023-11-07T13:28:55.497Z,2.33
2023-11-07T13:31:22.735Z,2.35
2023-11-07T13:33:49.884Z,1.73
2023-11-07T13:36:17.423Z,1.65
2023-11-07T13:38:44.693Z,2.10
2023-11-07T13:41:11.646Z,1.10
2023-11-07T13:43:38.603Z,3.20
2023-11-07T13:46:05.698Z,4.53
2023-11-07T13:48:32.711Z,3.00
2023-11-07T13:51:00.021Z,2.83
2023-11-07T13:53:27.095Z,2.50
2023-11-07T13:55:54.038Z,2.10
2023-11-07T13:58:21.170Z,3.33
2023-11-07T14:00:48.096Z,1.70
2023-11-07T14:03:15.139Z,4.03
2023-11-07T14:05:42.230Z,2.83
2023-11-07T14:08:09.264Z,2.15
2023-11-07T14:10:36.294Z,2.80
2023-11-07T14:13:03.247Z,11.57
2023-11-07T14:15:30.251Z,3.40
2023-11-07T14:17:57.249Z,3.55
2023-11-07T14:20:24.293Z,2.83
2023-11-07T14:22:52.031Z,2.38
2023-11-07T14:25:18.926Z,1.77
2023-11-07T14:27:45.955Z,2.58
2023-11-07T14:30:27.130Z,1.77
2023-11-07T14:33:00.221Z,3.25
2023-11-07T14:35:27.255Z,1.88
2023-11-07T14:37:54.197Z,2.60
2023-11-07T14:40:21.247Z,2.80
2023-11-07T14:42:48.291Z,2.90
2023-11-07T14:45:15.389Z,2.88
2023-11-07T14:47:46.451Z,3.03
2023-11-07T14:50:14.594Z,2.20
2023-11-07T14:52:42.127Z,4.60
2023-11-07T14:55:10.395Z,3.22
2023-11-07T14:57:38.472Z,2.97
2023-11-07T15:00:06.024Z,4.97
2023-11-07T15:02:33.028Z,3.45
2023-11-07T15:05:00.030Z,6.05
2023-11-07T15:07:26.990Z,7.95
2023-11-07T15:09:54.025Z,5.55
2023-11-07T15:12:20.982Z,5.35
2023-11-07T15:14:48.430Z,3.20
2023-11-07T15:17:15.526Z,4.47
2023-11-07T15:19:42.438Z,6.22
2023-11-07T15:22:09.438Z,7.93
2023-11-07T15:24:36.371Z,16.27
2023-11-07T15:27:03.344Z,16.23
2023-11-07T15:29:30.428Z,11.88
2023-11-07T15:31:57.344Z,21.65
2023-11-07T15:34:24.384Z,33.58
2023-11-07T15:36:51.456Z,38.80
2023-11-07T15:39:18.777Z,48.97
2023-11-07T15:41:45.742Z,25.17
2023-11-07T15:44:12.752Z,25.92
2023-11-07T15:46:40.633Z,18.15
2023-11-07T15:49:08.163Z,10.15
2023-11-07T15:51:35.259Z,15.50
2023-11-07T15:54:02.320Z,9.82
2023-11-07T15:56:29.324Z,18.85
2023-11-07T15:58:56.253Z,16.73
2023-11-07T16:01:26.849Z,34.92
2023-11-07T16:03:54.795Z,27.58
2023-11-07T16:06:22.386Z,21.05
2023-11-07T16:08:49.383Z,32.03
2023-11-07T16:11:16.545Z,26.92
2023-11-07T16:13:43.457Z,19.67
2023-11-07T16:16:11.590Z,21.55
2023-11-07T16:18:39.946Z,31.70
2023-11-07T16:21:07.012Z,27.45
2023-11-07T16:23:34.187Z,24.35
2023-11-07T16:26:01.433Z,13.30
2023-11-07T16:28:29.239Z,16.05
2023-11-07T16:30:56.203Z,13.40
2023-11-07T16:33:23.687Z,12.88
2023-11-07T16:35:50.618Z,17.70
2023-11-07T16:38:17.560Z,34.25
2023-11-07T16:40:44.602Z,24.88
2023-11-07T16:43:11.528Z,22.17
2023-11-07T16:45:38.571Z,14.85
2023-11-07T16:48:05.918Z,12.73
2023-11-07T16:50:33.015Z,35.72
2023-11-07T16:52:59.966Z,26.33
2023-11-07T16:55:26.871Z,21.83
2023-11-07T16:57:53.798Z,22.63
2023-11-07T17:00:20.855Z,9.52
2023-11-07T17:02:48.131Z,29.85
2023-11-07T17:05:15.407Z,15.52
2023-11-07T17:07:42.527Z,24.63
2023-11-07T17:10:09.995Z,38.95
2023-11-07T17:12:37.948Z,37.15
2023-11-07T17:15:08.438Z,30.52
2023-11-07T17:17:35.771Z,24.38
2023-11-07T17:20:02.743Z,28.02
2023-11-07T17:22:29.640Z,24.08
2023-11-07T17:24:56.685Z,19.55
2023-11-07T17:27:23.724Z,13.68
2023-11-07T17:29:50.735Z,30.70
2023-11-07T17:32:17.687Z,16.92
2023-11-07T17:34:44.627Z,33.22
2023-11-07T17:37:11.601Z,25.00
2023-11-07T17:39:38.578Z,14.40
2023-11-07T17:42:05.833Z,16.83
2023-11-07T17:44:32.859Z,20.17
2023-11-07T17:46:59.767Z,17.00
2023-11-07T17:49:26.729Z,13.38
2023-11-07T17:51:53.681Z,22.38
2023-11-07T17:54:20.768Z,11.93
2023-11-07T17:56:47.796Z,14.88
2023-11-07T17:59:14.744Z,14.93
2023-11-07T18:01:41.670Z,19.90
2023-11-07T18:04:08.740Z,46.15
2023-11-07T18:06:35.860Z,31.73
2023-11-07T18:09:02.991Z,53.35
2023-11-07T18:11:29.999Z,19.23
2023-11-07T18:13:56.947Z,27.70
2023-11-07T18:16:23.972Z,23.17
2023-11-07T18:18:58.189Z,15.20
2023-11-07T18:21:28.018Z,19.25
2023-11-07T18:23:56.020Z,14.65
2023-11-07T18:26:23.434Z,34.03
2023-11-07T18:28:51.392Z,30.25
2023-11-07T18:31:18.664Z,23.15
2023-11-07T18:33:45.904Z,21.10
2023-11-07T18:36:13.107Z,26.85
2023-11-07T18:38:40.554Z,19.00
2023-11-07T18:41:07.551Z,10.63
2023-11-07T18:43:34.677Z,6.20
2023-11-07T18:46:01.634Z,7.22
2023-11-07T18:48:28.722Z,6.97
2023-11-07T18:50:55.761Z,9.05
2023-11-07T18:53:27.936Z,11.77
2023-11-07T18:56:00.562Z,9.43
2023-11-07T18:58:27.494Z,17.00
2023-11-07T19:00:54.452Z,16.63
2023-11-07T19:03:21.445Z,15.25
2023-11-07T19:05:48.456Z,10.98
2023-11-07T19:08:15.365Z,13.82
2023-11-07T19:10:42.401Z,14.27
2023-11-07T19:13:09.389Z,25.42
2023-11-07T19:15:36.380Z,15.82
2023-11-07T19:18:03.540Z,18.05
2023-11-07T19:20:30.536Z,13.40
2023-11-07T19:22:57.524Z,17.65
2023-11-07T19:25:24.484Z,11.98
2023-11-07T19:27:51.512Z,11.68
2023-11-07T19:30:18.539Z,8.70
2023-11-07T19:32:45.464Z,14.93
2023-11-07T19:35:12.498Z,16.73
2023-11-07T19:37:39.590Z,9.05
2023-11-07T19:40:07.492Z,6.53
2023-11-07T19:42:35.331Z,3.75
2023-11-07T19:45:06.373Z,5.32
2023-11-07T19:47:33.576Z,4.28
2023-11-07T19:50:00.648Z,6.50
2023-11-07T19:52:27.592Z,9.43
2023-11-07T19:54:54.531Z,7.50
2023-11-07T19:57:21.552Z,11.88
2023-11-07T19:59:48.620Z,15.13
2023-11-07T20:02:15.563Z,14.27
2023-11-07T20:04:42.518Z,10.40
2023-11-07T20:07:09.491Z,6.57
2023-11-07T20:09:36.436Z,7.30
2023-11-07T20:12:03.461Z,6.45
2023-11-07T20:14:30.684Z,7.13
2023-11-07T20:16:57.630Z,6.22
2023-11-07T20:19:24.715Z,8.55
2023-11-07T20:21:51.887Z,5.93
2023-11-07T20:24:18.854Z,4.60
2023-11-07T20:26:45.846Z,8.00
2023-11-07T20:29:12.753Z,7.75
2023-11-07T20:31:39.709Z,5.65
2023-11-07T20:34:06.825Z,3.97
2023-11-07T20:36:33.927Z,4.20
2023-11-07T20:39:01.019Z,3.90
2023-11-07T20:41:27.964Z,3.88
2023-11-07T20:43:54.916Z,3.97
2023-11-07T20:46:30.881Z,6.65
2023-11-07T20:49:01.562Z,7.85
2023-11-07T20:51:28.706Z,4.10
2023-11-07T20:53:55.710Z,3.90
2023-11-07T20:56:22.672Z,3.50
2023-11-07T20:58:49.599Z,3.92
2023-11-07T21:01:16.632Z,4.22
2023-11-07T21:03:43.748Z,3.25
2023-11-07T21:06:10.794Z,4.10
2023-11-07T21:08:37.762Z,4.82
2023-11-07T21:11:05.066Z,3.42
2023-11-07T21:13:31.977Z,4.05
2023-11-07T21:15:58.926Z,3.15
2023-11-07T21:18:25.863Z,3.38
2023-11-07T21:20:52.813Z,3.75
2023-11-07T21:23:19.774Z,3.65
2023-11-07T21:25:46.763Z,3.80
2023-11-07T21:28:13.734Z,3.80
2023-11-07T21:30:40.688Z,3.20
2023-11-07T21:33:07.810Z,2.65
2023-11-07T21:35:34.792Z,3.03
2023-11-07T21:38:01.694Z,2.65
2023-11-07T21:40:28.624Z,3.30
2023-11-07T21:42:55.520Z,3.05
2023-11-07T21:45:22.507Z,2.78
2023-11-07T21:47:49.521Z,3.50
2023-11-07T21:50:16.544Z,3.90
2023-11-07T21:52:43.520Z,3.05
2023-11-07T21:55:10.467Z,3.15
2023-11-07T21:57:37.475Z,3.35
2023-11-07T22:00:05.537Z,3.05
2023-11-07T22:02:32.557Z,3.05
2023-11-07T22:04:59.624Z,3.22
2023-11-07T22:07:27.816Z,2.80
2023-11-07T22:09:54.866Z,3.15
2023-11-07T22:12:21.962Z,3.10
2023-11-07T22:14:48.873Z,3.30
2023-11-07T22:17:15.829Z,2.70
2023-11-07T22:19:42.712Z,2.78
2023-11-07T22:22:09.835Z,3.38
2023-11-07T22:24:36.798Z,3.30
2023-11-07T22:27:03.972Z,3.50
2023-11-07T22:29:30.967Z,5.55
2023-11-07T22:31:57.948Z,4.18
2023-11-07T22:34:25.024Z,3.13
2023-11-07T22:36:52.036Z,4.13
2023-11-07T22:39:18.986Z,3.05
2023-11-07T22:41:49.768Z,5.13
2023-11-07T22:44:16.782Z,4.55
2023-11-07T22:46:43.741Z,3.45
2023-11-07T22:49:10.779Z,3.63
2023-11-07T22:51:37.808Z,15.05
2023-11-07T22:54:04.882Z,4.93
2023-11-07T22:56:32.834Z,3.80
2023-11-07T22:58:59.756Z,3.83
2023-11-07T23:01:26.681Z,3.53
2023-11-07T23:03:53.672Z,3.30
2023-11-07T23:06:20.793Z,3.72
2023-11-07T23:08:47.830Z,4.63
2023-11-07T23:11:14.741Z,3.72
2023-11-07T23:13:41.724Z,3.80
2023-11-07T23:16:08.692Z,3.58
2023-11-07T23:18:35.743Z,4.40
2023-11-07T23:21:02.710Z,4.40
2023-11-07T23:23:29.686Z,4.72
2023-11-07T23:25:56.637Z,4.13
2023-11-07T23:28:23.745Z,3.92
2023-11-07T23:30:50.708Z,3.75
2023-11-07T23:33:17.971Z,4.10
2023-11-07T23:35:45.248Z,4.68
2023-11-07T23:38:13.150Z,4.35
2023-11-07T23:40:40.169Z,3.85
2023-11-07T23:43:07.249Z,4.18
2023-11-07T23:45:34.226Z,4.32
2023-11-07T23:48:01.252Z,3.80
2023-11-07T23:50:28.242Z,4.70
2023-11-07T23:52:55.167Z,3.95
2023-11-07T23:55:22.327Z,4.40
2023-11-07T23:57:49.340Z,4.03
